Terminal Aerodrome Forecast
Issued by NWS

Home | Current Version | Previous Version | Text Only | Print | Product List | Glossary On
Versions: 1 2 3 4 5 6 7 8 9 10 11 12 13 14 15
000
FTUS45 KABQ 030520
TAFSAF
TAF
KSAF 030520Z 0306/0406 36008KT P6SM FEW080 BKN120
     FM031800 17009KT P6SM FEW080
     FM032300 17011KT P6SM VCTS SCT080CB SCT150
     FM040100 13012G22KT P6SM VCSH BKN080=

USA.gov is the U.S. government's official web portal to all federal, state and local government web resources and services.